createdAt,value
2023-03-21T00:03:49.262Z,99934.56
2023-03-21T00:07:52.431Z,99936.34
2023-03-21T00:11:56.980Z,99929.28
2023-03-21T00:16:07.522Z,99927.56
2023-03-21T00:20:23.515Z,99924.91
2023-03-21T00:24:26.505Z,99928.44
2023-03-21T00:28:30.994Z,99918.72
2023-03-21T00:32:35.658Z,99917.88
2023-03-21T00:36:42.940Z,99917.00
2023-03-21T00:40:49.189Z,99915.22
2023-03-21T00:44:53.724Z,99911.72
2023-03-21T00:48:56.590Z,99910.84
2023-03-21T00:53:00.024Z,99909.97
2023-03-21T00:57:03.129Z,99900.31
2023-03-21T01:01:09.422Z,99906.47
2023-03-21T01:05:13.139Z,99905.59
2023-03-21T01:09:18.132Z,99901.19
2023-03-21T01:13:23.855Z,99908.25
2023-03-21T01:17:28.479Z,99895.91
2023-03-21T01:21:31.941Z,99898.56
2023-03-21T01:25:35.135Z,99904.72
2023-03-21T01:29:38.228Z,99897.66
2023-03-21T01:33:43.608Z,99897.66
2023-03-21T01:37:48.807Z,99895.94
2023-03-21T01:41:52.219Z,99895.03
2023-03-21T01:46:43.479Z,99888.91
2023-03-21T01:51:13.486Z,99892.41
2023-03-21T01:55:30.838Z,99887.16
2023-03-21T01:59:41.976Z,99884.47
2023-03-21T02:04:11.391Z,99885.34
2023-03-21T02:08:38.766Z,99888.00
2023-03-21T02:12:46.519Z,99882.72
2023-03-21T02:16:59.186Z,99874.81
2023-03-21T02:21:36.445Z,99881.81
2023-03-21T02:26:16.142Z,99880.09
2023-03-21T02:31:01.254Z,99873.03
2023-03-21T02:35:44.170Z,99878.31
2023-03-21T02:40:09.613Z,99873.91
2023-03-21T02:44:21.962Z,99866.00
2023-03-21T02:48:44.520Z,99853.69
2023-03-21T02:52:54.929Z,99858.09
2023-03-21T02:57:02.123Z,99861.59
2023-03-21T03:01:07.129Z,99865.09
2023-03-21T03:05:21.877Z,99866.88
2023-03-21T03:09:39.394Z,99860.69
2023-03-21T03:13:58.574Z,99862.47
2023-03-21T03:18:08.183Z,99864.25
2023-03-21T03:22:16.223Z,99866.88
2023-03-21T03:26:22.602Z,99869.50
2023-03-21T03:30:39.299Z,99864.25
2023-03-21T03:34:50.887Z,99862.47
2023-03-21T03:38:57.731Z,99859.88
2023-03-21T03:43:06.238Z,99856.34
2023-03-21T03:47:32.413Z,99856.34
2023-03-21T03:51:41.828Z,99851.09
2023-03-21T03:56:01.473Z,99862.50
2023-03-21T04:00:11.872Z,99859.84
2023-03-21T04:04:22.918Z,99854.59
2023-03-21T04:08:28.107Z,99858.06
2023-03-21T04:12:33.647Z,99857.19
2023-03-21T04:17:03.628Z,99857.19
2023-03-21T04:21:14.511Z,99841.38
2023-03-21T04:25:30.703Z,99853.69
2023-03-21T04:29:36.537Z,99856.34
2023-03-21T04:34:09.690Z,99862.47
2023-03-21T04:38:15.508Z,99870.38
2023-03-21T04:42:20.051Z,99874.75
2023-03-21T04:46:24.311Z,99871.22
2023-03-21T04:50:27.463Z,99878.25
2023-03-21T04:54:32.360Z,99880.88
2023-03-21T04:58:35.270Z,99880.00
2023-03-21T05:02:39.051Z,99882.63
2023-03-21T05:06:43.984Z,99878.22
2023-03-21T05:10:48.326Z,99892.25
2023-03-21T05:14:52.791Z,99887.84
2023-03-21T05:18:55.828Z,99892.22
2023-03-21T05:22:59.131Z,99900.13
2023-03-21T05:27:03.667Z,99901.03
2023-03-21T05:31:16.737Z,99911.56
2023-03-21T05:35:21.719Z,99911.53
2023-03-21T05:39:25.251Z,99913.28
2023-03-21T05:43:38.569Z,99915.03
2023-03-21T05:47:42.297Z,99909.72
2023-03-21T05:51:47.178Z,99909.69
2023-03-21T05:55:50.219Z,99904.44
2023-03-21T06:00:14.817Z,99909.66
2023-03-21T06:04:29.666Z,99904.38
2023-03-21T06:08:32.803Z,99902.63
2023-03-21T06:12:37.012Z,99904.38
2023-03-21T06:16:58.452Z,99906.16
2023-03-21T06:21:01.959Z,99912.31
2023-03-21T06:25:07.531Z,99915.03
2023-03-21T06:29:11.215Z,99909.81
2023-03-21T06:33:15.694Z,99919.50
2023-03-21T06:37:20.438Z,99910.75
2023-03-21T06:41:23.769Z,99929.22
2023-03-21T06:45:37.515Z,99930.13
2023-03-21T06:49:43.945Z,99926.63
2023-03-21T06:53:49.179Z,99931.03
2023-03-21T06:57:59.194Z,99923.16
2023-03-21T07:02:04.296Z,99920.53
2023-03-21T07:06:13.607Z,99923.16
2023-03-21T07:10:17.856Z,99918.78
2023-03-21T07:14:27.722Z,99911.72
2023-03-21T07:18:31.488Z,99927.53
2023-03-21T07:22:36.567Z,99920.47
2023-03-21T07:26:40.439Z,99928.38
2023-03-21T07:30:43.762Z,99930.09
2023-03-21T07:34:46.690Z,99930.09
2023-03-21T07:38:51.375Z,99932.69
2023-03-21T07:42:58.931Z,99932.69
2023-03-21T07:47:07.399Z,99930.00
2023-03-21T07:51:10.368Z,99930.84
2023-03-21T07:55:14.797Z,99924.69
2023-03-21T07:59:17.753Z,99921.09
2023-03-21T08:03:21.305Z,99923.66
2023-03-21T08:07:24.296Z,99921.81
2023-03-21T08:11:31.341Z,99924.44
2023-03-21T08:15:34.292Z,99921.72
2023-03-21T08:19:37.770Z,99919.06
2023-03-21T08:23:40.834Z,99916.34
2023-03-21T08:27:46.977Z,99922.47
2023-03-21T08:31:50.059Z,99912.81
2023-03-21T08:35:52.994Z,99923.41
2023-03-21T08:39:56.502Z,99911.88
2023-03-21T08:44:00.934Z,99914.41
2023-03-21T08:48:03.885Z,99911.72
2023-03-21T08:52:07.212Z,99917.03
2023-03-21T08:56:10.989Z,99912.53
2023-03-21T09:00:18.356Z,99917.75
2023-03-21T09:04:21.313Z,99922.94
2023-03-21T09:08:24.379Z,99910.53
2023-03-21T09:12:27.669Z,99911.41
2023-03-21T09:16:32.465Z,99907.84
2023-03-21T09:20:38.390Z,99914.03
2023-03-21T09:24:42.562Z,99898.06
2023-03-21T09:28:46.248Z,99909.59
2023-03-21T09:32:50.610Z,99904.22
2023-03-21T09:36:54.700Z,99900.56
2023-03-21T09:41:10.344Z,99901.44
2023-03-21T09:45:20.502Z,99894.22
2023-03-21T09:49:31.070Z,99894.91
2023-03-21T09:53:37.648Z,99888.59
2023-03-21T09:57:45.764Z,99883.25
2023-03-21T10:01:50.452Z,99879.50
2023-03-21T10:05:58.592Z,99873.25
2023-03-21T10:10:04.511Z,99874.09
2023-03-21T10:14:14.172Z,99863.34
2023-03-21T10:18:22.573Z,99865.00
2023-03-21T10:22:27.069Z,99855.97
2023-03-21T10:26:31.458Z,99847.78
2023-03-21T10:30:39.825Z,99844.84
2023-03-21T10:34:46.832Z,99847.25
2023-03-21T10:38:56.216Z,99841.78
2023-03-21T10:43:18.123Z,99852.13
2023-03-21T10:47:23.142Z,99852.88
2023-03-21T10:51:29.361Z,99848.47
2023-03-21T10:55:36.026Z,99848.56
2023-03-21T10:59:43.260Z,99844.28
2023-03-21T11:03:48.245Z,99844.41
2023-03-21T11:07:59.776Z,99842.41
2023-03-21T11:12:06.799Z,99841.44
2023-03-21T11:16:12.772Z,99836.00
2023-03-21T11:20:20.064Z,99834.00
2023-03-21T11:24:23.313Z,99821.38
2023-03-21T11:28:34.704Z,99806.50
2023-03-21T11:32:39.635Z,99816.28
2023-03-21T11:36:42.627Z,99811.09
2023-03-21T11:40:54.746Z,99805.00
2023-03-21T11:45:12.696Z,99803.94
2023-03-21T11:49:15.636Z,99785.19
2023-03-21T11:53:32.053Z,99781.44
2023-03-21T11:57:44.721Z,99773.22
2023-03-21T12:01:59.759Z,99769.53
2023-03-21T12:06:06.554Z,99754.19
2023-03-21T12:10:31.604Z,99754.78
2023-03-21T12:14:45.273Z,99747.44
2023-03-21T12:19:03.970Z,99740.97
2023-03-21T12:23:33.273Z,99738.00
2023-03-21T12:27:46.136Z,99733.06
2023-03-21T12:31:59.860Z,99731.22
2023-03-21T12:36:17.741Z,99718.41
2023-03-21T12:40:34.361Z,99710.47
2023-03-21T12:44:41.983Z,99706.66
2023-03-21T12:48:48.729Z,99705.06
2023-03-21T12:52:56.931Z,99699.03
2023-03-21T12:57:06.034Z,99701.41
2023-03-21T13:01:12.148Z,99690.44
2023-03-21T13:05:20.850Z,99696.56
2023-03-21T13:09:38.019Z,99674.41
2023-03-21T13:13:47.028Z,99668.66
2023-03-21T13:17:55.515Z,99669.97
2023-03-21T13:22:07.313Z,99670.53
2023-03-21T13:26:12.774Z,99671.81
2023-03-21T13:30:22.429Z,99665.81
2023-03-21T13:34:26.780Z,99660.59
2023-03-21T13:38:30.983Z,99659.00
2023-03-21T13:42:35.282Z,99654.72
2023-03-21T13:46:54.064Z,99653.13
2023-03-21T13:51:03.027Z,99655.88
2023-03-21T13:55:16.528Z,99645.19
2023-03-21T13:59:38.309Z,99653.19
2023-03-21T14:03:41.936Z,99646.91
2023-03-21T14:07:50.045Z,99637.22
2023-03-21T14:11:58.726Z,99632.94
2023-03-21T14:16:13.784Z,99630.53
2023-03-21T14:20:21.444Z,99629.03
2023-03-21T14:24:24.577Z,99630.16
2023-03-21T14:28:32.937Z,99624.06
2023-03-21T14:32:37.264Z,99616.13
2023-03-21T14:36:45.724Z,99623.19
2023-03-21T14:40:53.812Z,99614.31
2023-03-21T14:45:00.459Z,99607.25
2023-03-21T14:49:19.866Z,99600.91
2023-03-21T14:53:27.103Z,99598.13
2023-03-21T14:57:35.666Z,99597.94
2023-03-21T15:01:38.700Z,99589.88
2023-03-21T15:05:43.390Z,99592.50
2023-03-21T15:09:55.196Z,99592.47
2023-03-21T15:14:00.959Z,99588.97
2023-03-21T15:18:06.800Z,99595.16
2023-03-21T15:22:18.988Z,99591.66
2023-03-21T15:26:25.424Z,99590.72
2023-03-21T15:30:30.854Z,99589.06
2023-03-21T15:34:33.855Z,99589.97
2023-03-21T15:38:42.495Z,99585.56
2023-03-21T15:42:46.430Z,99588.28
2023-03-21T15:46:51.374Z,99586.63
2023-03-21T15:51:00.405Z,99581.50
2023-03-21T15:55:21.203Z,99578.09
2023-03-21T15:59:27.932Z,99578.88
2023-03-21T16:03:33.335Z,99584.13
2023-03-21T16:07:36.427Z,99571.78
2023-03-21T16:11:43.550Z,99573.50
2023-03-21T16:15:47.101Z,99580.66
2023-03-21T16:19:50.078Z,99573.56
2023-03-21T16:23:53.475Z,99578.88
2023-03-21T16:27:58.389Z,99581.56
2023-03-21T16:32:06.126Z,99578.94
2023-03-21T16:36:15.481Z,99582.56
2023-03-21T16:40:27.648Z,99587.88
2023-03-21T16:44:32.008Z,99583.56
2023-03-21T16:48:34.944Z,99580.91
2023-03-21T16:52:38.020Z,99584.50
2023-03-21T16:56:44.133Z,99590.75
2023-03-21T17:00:50.623Z,99581.91
2023-03-21T17:04:56.395Z,99585.50
2023-03-21T17:09:00.702Z,99580.22
2023-03-21T17:13:03.961Z,99575.78
2023-03-21T17:17:14.728Z,99593.56
2023-03-21T17:21:20.830Z,99586.53
2023-03-21T17:25:24.062Z,99575.97
2023-03-21T17:29:27.463Z,99592.81
2023-03-21T17:33:32.081Z,99581.44
2023-03-21T17:37:35.491Z,99598.44
2023-03-21T17:41:38.851Z,99590.59
2023-03-21T17:45:41.818Z,99590.66
2023-03-21T17:49:46.594Z,99602.25
2023-03-21T17:53:51.733Z,99596.25
2023-03-21T17:57:54.918Z,99585.78
2023-03-21T18:01:57.892Z,99592.13
2023-03-21T18:06:02.226Z,99597.66
2023-03-21T18:10:06.359Z,99607.66
2023-03-21T18:14:17.267Z,99606.19
2023-03-21T18:18:21.922Z,99609.00
2023-03-21T18:22:26.284Z,99618.03
2023-03-21T18:26:31.204Z,99621.69
2023-03-21T18:30:56.423Z,99617.31
2023-03-21T18:34:59.661Z,99624.50
2023-03-21T18:39:05.129Z,99624.75
2023-03-21T18:43:56.072Z,99619.59
2023-03-21T18:47:31.328Z,99625.94
2023-03-21T18:51:34.272Z,99628.88
2023-03-21T18:55:45.963Z,99625.59
2023-03-21T18:59:49.605Z,99629.22
2023-03-21T19:04:17.830Z,99627.50
2023-03-21T19:08:22.251Z,99634.75
2023-03-21T19:12:26.779Z,99629.59
2023-03-21T19:16:32.637Z,99635.91
2023-03-21T19:20:44.392Z,99633.31
2023-03-21T19:24:47.450Z,99627.31
2023-03-21T19:28:51.761Z,99628.34
2023-03-21T19:32:54.693Z,99633.75
2023-03-21T19:36:58.030Z,99632.09
2023-03-21T19:41:01.605Z,99628.69
2023-03-21T19:45:07.052Z,99624.34
2023-03-21T19:49:10.333Z,99621.78
2023-03-21T19:53:13.805Z,99629.81
2023-03-21T19:57:17.395Z,99630.78
2023-03-21T20:01:22.190Z,99641.47
2023-03-21T20:05:25.737Z,99641.59
2023-03-21T20:09:50.416Z,99653.19
2023-03-21T20:13:52.490Z,99661.22
2023-03-21T20:17:58.638Z,99666.53
2023-03-21T20:22:02.846Z,99658.63
2023-03-21T20:26:10.449Z,99662.19
2023-03-21T20:30:16.127Z,99666.56
2023-03-21T20:34:21.342Z,99670.09
2023-03-21T20:38:25.092Z,99663.03
2023-03-21T20:42:29.760Z,99673.59
2023-03-21T20:46:32.760Z,99673.59
2023-03-21T20:50:39.507Z,99684.19
2023-03-21T20:54:49.218Z,99676.25
2023-03-21T20:59:04.853Z,99675.41
2023-03-21T21:03:15.905Z,99674.53
2023-03-21T21:07:21.819Z,99673.63
2023-03-21T21:12:05.146Z,99670.97
2023-03-21T21:15:47.852Z,99669.16
2023-03-21T21:19:50.937Z,99669.13
2023-03-21T21:23:55.416Z,99668.22
2023-03-21T21:27:58.362Z,99668.19
2023-03-21T21:32:05.423Z,99661.09
2023-03-21T21:36:10.429Z,99660.19
2023-03-21T21:40:20.352Z,99659.31
2023-03-21T21:44:23.495Z,99664.59
2023-03-21T21:48:27.096Z,99661.97
2023-03-21T21:52:30.200Z,99662.88
2023-03-21T21:56:38.512Z,99659.31
2023-03-21T22:00:42.698Z,99659.31
2023-03-21T22:04:45.621Z,99666.28
2023-03-21T22:08:51.945Z,99661.91
2023-03-21T22:12:56.517Z,99663.66
2023-03-21T22:17:00.254Z,99673.34
2023-03-21T22:21:03.619Z,99667.19
2023-03-21T22:25:10.398Z,99668.91
2023-03-21T22:29:14.686Z,99674.19
2023-03-21T22:33:17.614Z,99679.47
2023-03-21T22:37:20.758Z,99678.56
2023-03-21T22:41:23.671Z,99677.69
2023-03-21T22:45:28.048Z,99666.28
2023-03-21T22:49:31.829Z,99667.22
2023-03-21T22:53:34.851Z,99661.16
2023-03-21T22:57:38.426Z,99666.56
2023-03-21T23:01:43.037Z,99678.97
2023-03-21T23:05:47.410Z,99672.03
2023-03-21T23:09:50.660Z,99677.31
2023-03-21T23:14:06.789Z,99680.81
2023-03-21T23:18:12.176Z,99678.16
2023-03-21T23:22:15.309Z,99683.41
2023-03-21T23:26:19.796Z,99682.50
2023-03-21T23:30:22.820Z,99673.72
2023-03-21T23:34:27.789Z,99678.13
2023-03-21T23:38:30.769Z,99672.00
2023-03-21T23:42:34.245Z,99672.88
2023-03-21T23:46:37.276Z,99665.88
2023-03-21T23:50:41.979Z,99665.03
2023-03-21T23:54:45.087Z,99667.69
2023-03-21T23:58:49.791Z,99662.41
